createdAt,value
2023-10-07T00:00:04.211Z,96334.1
2023-10-07T00:01:06.524Z,96334.7
2023-10-07T00:02:08.795Z,96333.5
2023-10-07T00:03:11.381Z,96331.3
2023-10-07T00:04:14.119Z,96335
2023-10-07T00:05:16.096Z,96337.2
2023-10-07T00:06:18.356Z,96334.3
2023-10-07T00:07:20.467Z,96332.4
2023-10-07T00:08:22.782Z,96332.3
2023-10-07T00:09:25.095Z,96330.9
2023-10-07T00:10:27.637Z,96337
2023-10-07T00:11:29.915Z,96331.4
2023-10-07T00:12:31.662Z,96325.7
2023-10-07T00:13:33.998Z,96333.2
2023-10-07T00:14:35.960Z,96325.3
2023-10-07T00:15:37.885Z,96331.9
2023-10-07T00:16:40.748Z,96333.4
2023-10-07T00:17:43.094Z,96332
2023-10-07T00:18:45.123Z,96333.4
2023-10-07T00:19:47.201Z,96332.7
2023-10-07T00:20:49.295Z,96337.7
2023-10-07T00:21:51.211Z,96334
2023-10-07T00:22:53.469Z,96335.4
2023-10-07T00:23:55.683Z,96334.2
2023-10-07T00:24:57.854Z,96331.3
2023-10-07T00:26:00.697Z,96330.7
2023-10-07T00:27:02.701Z,96328.7
2023-10-07T00:28:04.893Z,96330
2023-10-07T00:29:07.113Z,96321.5
2023-10-07T00:30:09.358Z,96321.9
2023-10-07T00:31:11.533Z,96323.9
2023-10-07T00:32:13.899Z,96321.8
2023-10-07T00:33:16.863Z,96321.9
2023-10-07T00:34:18.863Z,96322.1
2023-10-07T00:35:20.968Z,96316.4
2023-10-07T00:36:22.965Z,96321.6
2023-10-07T00:37:25.368Z,96316
2023-10-07T00:38:27.553Z,96322.9
2023-10-07T00:39:29.445Z,96320.1
2023-10-07T00:40:31.863Z,96322.9
2023-10-07T00:41:33.965Z,96323.3
2023-10-07T00:42:36.111Z,96321.3
2023-10-07T00:43:38.456Z,96319
2023-10-07T00:44:41.097Z,96320.3
2023-10-07T00:45:43.402Z,96323.1
2023-10-07T00:46:45.387Z,96322.8
2023-10-07T00:47:47.911Z,96320.9
2023-10-07T00:48:50.066Z,96318.8
2023-10-07T00:49:52.586Z,96322.2
2023-10-07T00:50:54.518Z,96321.6
2023-10-07T00:51:56.206Z,96330.5
2023-10-07T00:52:58.614Z,96331.7
2023-10-07T00:54:00.863Z,96333.6
2023-10-07T00:55:02.990Z,96330.2
2023-10-07T00:56:05.148Z,96329.3
2023-10-07T00:57:07.366Z,96328.3
2023-10-07T00:58:09.321Z,96329.1
2023-10-07T00:59:11.269Z,96325.5
2023-10-07T01:00:13.211Z,96325.4
2023-10-07T01:01:15.459Z,96324.4
2023-10-07T01:02:17.711Z,96323.5
2023-10-07T01:03:19.849Z,96325.4
2023-10-07T01:04:22.019Z,96321.4
2023-10-07T01:05:24.426Z,96320.5
2023-10-07T01:06:26.400Z,96321.4
2023-10-07T01:07:28.828Z,96320.4
2023-10-07T01:08:31.156Z,96316.9
2023-10-07T01:09:33.278Z,96319.1
2023-10-07T01:10:35.513Z,96320
2023-10-07T01:11:37.841Z,96325.4
2023-10-07T01:12:39.789Z,96323.1
2023-10-07T01:13:42.126Z,96321.6
2023-10-07T01:14:44.063Z,96319.9
2023-10-07T01:15:46.145Z,96322.1
2023-10-07T01:16:48.695Z,96322.9
2023-10-07T01:17:50.783Z,96313.4
2023-10-07T01:18:52.725Z,96317.6
2023-10-07T01:19:55.319Z,96314.6
2023-10-07T01:20:57.283Z,96314.1
2023-10-07T01:21:59.183Z,96315.8
2023-10-07T01:23:01.543Z,96316.8
2023-10-07T01:24:03.691Z,96316.1
2023-10-07T01:25:05.846Z,96313
2023-10-07T01:26:07.910Z,96317.2
2023-10-07T01:27:10.266Z,96317.6
2023-10-07T01:28:12.170Z,96319.6
2023-10-07T01:29:14.127Z,96318.1
2023-10-07T01:30:16.247Z,96321.5
2023-10-07T01:31:18.528Z,96318.2
2023-10-07T01:32:20.667Z,96326.9
2023-10-07T01:33:22.644Z,96325.9
2023-10-07T01:34:24.725Z,96321.4
2023-10-07T01:35:26.856Z,96326.8
2023-10-07T01:36:28.933Z,96319.6
2023-10-07T01:37:31.163Z,96323.8
2023-10-07T01:38:33.136Z,96323.2
2023-10-07T01:39:35.193Z,96324.2
2023-10-07T01:40:37.590Z,96324
2023-10-07T01:41:39.511Z,96323.6
2023-10-07T01:42:41.697Z,96319.9
2023-10-07T01:43:43.776Z,96322.2
2023-10-07T01:44:45.940Z,96320.6
2023-10-07T01:45:48.108Z,96319.6
2023-10-07T01:46:50.302Z,96320
2023-10-07T01:47:52.760Z,96324.4
2023-10-07T01:48:54.805Z,96320.3
2023-10-07T01:49:56.994Z,96318.3
2023-10-07T01:50:59.338Z,96322
2023-10-07T01:52:01.230Z,96319.3
2023-10-07T01:53:03.592Z,96321.5
2023-10-07T01:54:06.283Z,96320.9
2023-10-07T01:55:08.275Z,96318.4
2023-10-07T01:56:10.553Z,96319.7
2023-10-07T01:57:12.778Z,96318.7
2023-10-07T01:58:15.118Z,96321.3
2023-10-07T01:59:17.863Z,96321.5
2023-10-07T02:00:20.065Z,96322.8
2023-10-07T02:01:22.300Z,96321.8
2023-10-07T02:02:24.352Z,96319
2023-10-07T02:03:26.699Z,96316.9
2023-10-07T02:04:30.270Z,96320.1
2023-10-07T02:05:32.599Z,96318.3
2023-10-07T02:06:34.336Z,96319.9
2023-10-07T02:07:36.726Z,96319.7
2023-10-07T02:08:38.880Z,96320.4
2023-10-07T02:09:41.030Z,96320.7
2023-10-07T02:10:43.183Z,96322.8
2023-10-07T02:11:45.387Z,96325.3
2023-10-07T02:12:47.616Z,96325.2
2023-10-07T02:13:50.147Z,96326
2023-10-07T02:14:52.286Z,96328.5
2023-10-07T02:15:54.726Z,96325.5
2023-10-07T02:16:57.343Z,96327.3
2023-10-07T02:18:00.211Z,96326.3
2023-10-07T02:19:02.566Z,96323.2
2023-10-07T02:20:04.959Z,96325.9
2023-10-07T02:21:07.244Z,96324.5
2023-10-07T02:22:09.477Z,96320.6
2023-10-07T02:23:11.405Z,96322.9
2023-10-07T02:24:13.329Z,96321.4
2023-10-07T02:25:15.448Z,96322.4
2023-10-07T02:26:17.615Z,96321.3
2023-10-07T02:27:20.161Z,96322.8
2023-10-07T02:28:22.260Z,96318.2
2023-10-07T02:29:24.539Z,96324.2
2023-10-07T02:30:26.855Z,96319.9
2023-10-07T02:31:29.443Z,96319.5
2023-10-07T02:32:31.490Z,96324.5
2023-10-07T02:33:33.429Z,96324.5
2023-10-07T02:34:35.893Z,96326.8
2023-10-07T02:35:38.048Z,96323.1
2023-10-07T02:36:39.962Z,96325.2
2023-10-07T02:37:42.002Z,96326.1
2023-10-07T02:38:43.998Z,96320.5
2023-10-07T02:39:47.417Z,96326.7
2023-10-07T02:40:52.668Z,96325.8
2023-10-07T02:41:54.633Z,96327.1
2023-10-07T02:42:57.147Z,96323.8
2023-10-07T02:43:59.237Z,96325.2
2023-10-07T02:45:01.580Z,96326.2
2023-10-07T02:46:03.483Z,96325.6
2023-10-07T02:47:06.036Z,96328
2023-10-07T02:48:08.351Z,96324.2
2023-10-07T02:49:10.569Z,96327.1
2023-10-07T02:50:12.753Z,96328.5
2023-10-07T02:51:14.918Z,96325.3
2023-10-07T02:52:17.014Z,96323.3
2023-10-07T02:53:18.934Z,96320.7
2023-10-07T02:54:21.054Z,96324
2023-10-07T02:55:23.355Z,96322.7
2023-10-07T02:56:25.688Z,96323.7
2023-10-07T02:57:27.777Z,96326.4
2023-10-07T02:58:30.226Z,96323
2023-10-07T02:59:32.271Z,96327.2
2023-10-07T03:00:34.578Z,96327.6
2023-10-07T03:01:36.745Z,96327.4
2023-10-07T03:02:39.799Z,96324.5
2023-10-07T03:03:42.982Z,96325
2023-10-07T03:04:45.704Z,96323.4
2023-10-07T03:05:48.083Z,96328.2
2023-10-07T03:06:50.151Z,96332.2
2023-10-07T03:07:52.815Z,96334.8
2023-10-07T03:08:54.812Z,96336.1
2023-10-07T03:09:56.917Z,96343.6
2023-10-07T03:10:59.144Z,96343
2023-10-07T03:12:01.105Z,96340.9
2023-10-07T03:13:03.193Z,96339.3
2023-10-07T03:14:05.692Z,96338.1
2023-10-07T03:15:07.758Z,96339.9
2023-10-07T03:16:10.148Z,96340.4
2023-10-07T03:17:12.696Z,96337.8
2023-10-07T03:18:14.966Z,96343.2
2023-10-07T03:19:16.956Z,96344.7
2023-10-07T03:20:18.910Z,96337.6
2023-10-07T03:21:20.791Z,96343.9
2023-10-07T03:22:23.145Z,96343.9
2023-10-07T03:23:25.554Z,96340.6
2023-10-07T03:24:27.734Z,96344.1
2023-10-07T03:25:29.963Z,96339.7
2023-10-07T03:26:32.085Z,96342.1
2023-10-07T03:27:34.180Z,96341.9
2023-10-07T03:28:36.492Z,96340.9
2023-10-07T03:29:38.725Z,96344
2023-10-07T03:30:41.091Z,96343
2023-10-07T03:31:43.494Z,96344.4
2023-10-07T03:32:45.824Z,96344.4
2023-10-07T03:33:47.844Z,96349.7
2023-10-07T03:34:50.153Z,96350.8
2023-10-07T03:35:52.126Z,96349.9
2023-10-07T03:36:55.454Z,96352.3
2023-10-07T03:37:57.600Z,96351.7
2023-10-07T03:38:59.861Z,96355.1
2023-10-07T03:40:02.032Z,96352.1
2023-10-07T03:41:03.894Z,96352.4
2023-10-07T03:42:05.649Z,96349.9
2023-10-07T03:43:07.723Z,96351.1
2023-10-07T03:44:11.200Z,96350.6
2023-10-07T03:45:13.952Z,96354.3
2023-10-07T03:46:16.520Z,96353.4
2023-10-07T03:47:18.892Z,96351.6
2023-10-07T03:48:21.106Z,96353.5
2023-10-07T03:49:23.335Z,96352
2023-10-07T03:50:25.251Z,96354.7
2023-10-07T03:51:27.384Z,96352
2023-10-07T03:52:29.783Z,96352.2
2023-10-07T03:53:31.898Z,96353.9
2023-10-07T03:54:34.137Z,96352.2
2023-10-07T03:55:35.926Z,96353.6
2023-10-07T03:56:38.079Z,96349.5
2023-10-07T03:57:40.162Z,96351.2
2023-10-07T03:58:42.200Z,96350.2
2023-10-07T03:59:44.385Z,96348.1
2023-10-07T04:00:46.497Z,96350.7
2023-10-07T04:01:48.704Z,96352
2023-10-07T04:02:51.629Z,96345.3
2023-10-07T04:03:53.504Z,96348
2023-10-07T04:04:55.848Z,96347.9
2023-10-07T04:05:57.791Z,96348.5
2023-10-07T04:06:59.883Z,96347.4
2023-10-07T04:08:02.240Z,96344.8
2023-10-07T04:09:04.494Z,96346.3
2023-10-07T04:10:06.447Z,96346
2023-10-07T04:11:08.654Z,96348.4
2023-10-07T04:12:10.836Z,96347
2023-10-07T04:13:12.933Z,96348.4
2023-10-07T04:14:15.399Z,96349.2
2023-10-07T04:15:17.360Z,96351.4
2023-10-07T04:16:19.445Z,96345
2023-10-07T04:17:21.695Z,96344.7
2023-10-07T04:18:24.069Z,96347.8
2023-10-07T04:19:26.398Z,96343.9
2023-10-07T04:20:29.031Z,96347.6
2023-10-07T04:21:31.272Z,96343.7
2023-10-07T04:22:33.614Z,96341.1
2023-10-07T04:23:35.761Z,96343.9
2023-10-07T04:24:37.652Z,96341.9
2023-10-07T04:25:39.824Z,96345.3
2023-10-07T04:26:42.259Z,96349.8
2023-10-07T04:27:44.626Z,96344
2023-10-07T04:28:46.896Z,96347.7
2023-10-07T04:29:49.564Z,96345.6
2023-10-07T04:30:52.103Z,96348.5
2023-10-07T04:31:54.721Z,96343.2
2023-10-07T04:32:57.401Z,96342.7
2023-10-07T04:33:59.656Z,96342.2
2023-10-07T04:35:02.202Z,96347.1
2023-10-07T04:36:04.239Z,96346.3
2023-10-07T04:37:06.381Z,96343.5
2023-10-07T04:38:08.687Z,96342.1
2023-10-07T04:39:10.887Z,96341.9
2023-10-07T04:40:13.059Z,96346
2023-10-07T04:41:15.264Z,96345.2
2023-10-07T04:42:17.380Z,96346.3
2023-10-07T04:43:19.287Z,96349.7
2023-10-07T04:44:21.358Z,96356.9
2023-10-07T04:45:23.459Z,96353.2
2023-10-07T04:46:26.352Z,96351.3
2023-10-07T04:47:28.924Z,96356.2
2023-10-07T04:48:30.920Z,96353.2
2023-10-07T04:49:33.342Z,96347.2
2023-10-07T04:50:35.448Z,96345.1
2023-10-07T04:51:37.166Z,96342.6
2023-10-07T04:52:39.258Z,96345.2
2023-10-07T04:53:41.426Z,96345.7
2023-10-07T04:54:43.363Z,96350
2023-10-07T04:55:45.597Z,96346.8
2023-10-07T04:56:47.527Z,96351.8
2023-10-07T04:57:49.262Z,96349.5
2023-10-07T04:58:51.378Z,96352.8
2023-10-07T04:59:53.341Z,96354.4
2023-10-07T05:00:55.423Z,96353.5
2023-10-07T05:01:58.240Z,96352.3
2023-10-07T05:03:00.901Z,96356.3
2023-10-07T05:04:03.032Z,96351.2
2023-10-07T05:05:05.308Z,96352.7
2023-10-07T05:06:07.276Z,96354
2023-10-07T05:07:09.399Z,96354.1
2023-10-07T05:08:11.745Z,96354.7
2023-10-07T05:09:14.268Z,96351.9
2023-10-07T05:10:16.386Z,96357.1
2023-10-07T05:11:18.066Z,96351.3
2023-10-07T05:12:20.182Z,96351.6
2023-10-07T05:13:22.068Z,96353.1
2023-10-07T05:14:24.487Z,96353.2
2023-10-07T05:15:26.635Z,96349.7
2023-10-07T05:16:28.971Z,96350.9
2023-10-07T05:17:31.657Z,96349.2
2023-10-07T05:18:33.973Z,96348.7
2023-10-07T05:19:36.204Z,96355.5
2023-10-07T05:20:38.534Z,96354.6
2023-10-07T05:21:40.767Z,96352.5
2023-10-07T05:22:42.660Z,96357.5
2023-10-07T05:23:44.527Z,96362.2
2023-10-07T05:24:46.424Z,96361.7
2023-10-07T05:25:48.767Z,96362.5
2023-10-07T05:26:50.788Z,96366.5
2023-10-07T05:27:52.736Z,96363
2023-10-07T05:28:54.918Z,96363.7
2023-10-07T05:29:56.846Z,96360.2
2023-10-07T05:30:58.944Z,96361.9
2023-10-07T05:32:01.039Z,96360
2023-10-07T05:33:03.510Z,96358.9
2023-10-07T05:34:05.518Z,96360.7
2023-10-07T05:35:07.027Z,96361.3
2023-10-07T05:36:09.467Z,96357.8
2023-10-07T05:37:11.665Z,96365.6
2023-10-07T05:38:14.250Z,96357.1
2023-10-07T05:39:16.477Z,96364.5
2023-10-07T05:40:18.216Z,96362.8
2023-10-07T05:41:20.458Z,96367.9
2023-10-07T05:42:22.215Z,96368.9
2023-10-07T05:43:24.328Z,96373.2
2023-10-07T05:44:26.466Z,96373.4
2023-10-07T05:45:28.545Z,96378.9
2023-10-07T05:46:30.440Z,96382.6
2023-10-07T05:47:32.514Z,96384.8
2023-10-07T05:48:34.452Z,96383.2
2023-10-07T05:49:36.803Z,96384.5
2023-10-07T05:50:38.812Z,96382.3
2023-10-07T05:51:41.109Z,96384.7
2023-10-07T05:52:43.395Z,96384
2023-10-07T05:53:45.548Z,96380
2023-10-07T05:54:47.468Z,96383
2023-10-07T05:55:49.643Z,96388.2
2023-10-07T05:56:51.850Z,96379.5
2023-10-07T05:57:53.948Z,96378.7
2023-10-07T05:58:56.302Z,96382.8
2023-10-07T05:59:58.337Z,96377.3
2023-10-07T06:01:00.812Z,96374.8
2023-10-07T06:02:03.025Z,96377.2
2023-10-07T06:03:05.334Z,96380.8
2023-10-07T06:04:07.818Z,96380.5
2023-10-07T06:05:10.242Z,96381.2
2023-10-07T06:06:12.617Z,96379.9
2023-10-07T06:07:14.623Z,96381.5
2023-10-07T06:08:17.118Z,96387.2
2023-10-07T06:09:19.150Z,96389.6
2023-10-07T06:10:21.367Z,96388.6
2023-10-07T06:11:23.244Z,96393.8
2023-10-07T06:12:25.151Z,96394
2023-10-07T06:13:26.850Z,96398.1
2023-10-07T06:14:28.551Z,96401.8
2023-10-07T06:15:30.688Z,96405.1
2023-10-07T06:16:32.856Z,96402.6
2023-10-07T06:17:39.896Z,96406.4
2023-10-07T06:18:41.994Z,96399.9
2023-10-07T06:19:44.221Z,96397.3
2023-10-07T06:20:46.457Z,96399.5
2023-10-07T06:21:48.610Z,96394.7
2023-10-07T06:22:50.831Z,96397.1
2023-10-07T06:23:52.748Z,96401.6
2023-10-07T06:24:54.846Z,96402.5
2023-10-07T06:25:56.949Z,96400.3
2023-10-07T06:26:59.110Z,96402.1
2023-10-07T06:28:00.838Z,96399.8
2023-10-07T06:29:02.962Z,96398.1
2023-10-07T06:30:05.150Z,96394.3
2023-10-07T06:31:07.360Z,96396.4
2023-10-07T06:32:09.710Z,96393.7
2023-10-07T06:33:12.066Z,96397.1
2023-10-07T06:34:14.909Z,96398.6
2023-10-07T06:35:17.096Z,96396.6
2023-10-07T06:36:19.214Z,96398.3
2023-10-07T06:37:21.326Z,96400.3
2023-10-07T06:38:23.503Z,96401.6
2023-10-07T06:39:25.625Z,96402.1
2023-10-07T06:40:27.761Z,96405.6
2023-10-07T06:41:29.866Z,96402.2
2023-10-07T06:42:31.989Z,96403.7
2023-10-07T06:43:34.115Z,96402.2
2023-10-07T06:44:35.847Z,96397.3
2023-10-07T06:45:38.317Z,96398.1
2023-10-07T06:46:40.626Z,96398.5
2023-10-07T06:47:42.984Z,96399.8
2023-10-07T06:48:45.310Z,96399.3
2023-10-07T06:49:47.564Z,96402.3
2023-10-07T06:50:49.981Z,96403.9
2023-10-07T06:51:52.103Z,96406.7
2023-10-07T06:52:54.417Z,96400.6
2023-10-07T06:53:56.478Z,96395.8
2023-10-07T06:56:03.822Z,96388.3
2023-10-07T06:57:06.122Z,96387.1
2023-10-07T06:58:08.201Z,96385
2023-10-07T06:59:10.315Z,96386.5
2023-10-07T07:00:12.486Z,96384.8
2023-10-07T07:01:14.780Z,96386.5
2023-10-07T07:02:17.060Z,96384.4
2023-10-07T07:03:20.599Z,96382.4
2023-10-07T07:04:23.380Z,96381.3
2023-10-07T07:05:25.680Z,96381.1
2023-10-07T07:06:27.602Z,96380.9
2023-10-07T07:07:29.735Z,96378.8
2023-10-07T07:08:31.667Z,96380.3
2023-10-07T07:09:33.949Z,96382.9
2023-10-07T07:10:36.508Z,96386.5
2023-10-07T07:11:38.649Z,96386.8
2023-10-07T07:12:40.790Z,96391.2
2023-10-07T07:13:43.127Z,96387.3
2023-10-07T07:14:45.301Z,96384.4
2023-10-07T07:15:47.551Z,96385.2
2023-10-07T07:16:49.970Z,96388.2
2023-10-07T07:17:52.262Z,96386
2023-10-07T07:18:54.435Z,96383.9
2023-10-07T07:19:56.949Z,96386.4
2023-10-07T07:20:59.132Z,96386.5
2023-10-07T07:22:01.078Z,96391.1
2023-10-07T07:23:03.350Z,96388.6
2023-10-07T07:24:05.558Z,96392.3
2023-10-07T07:25:07.882Z,96394.8
2023-10-07T07:26:10.163Z,96392.9
2023-10-07T07:27:12.581Z,96397.8
2023-10-07T07:28:14.829Z,96399.8
2023-10-07T07:29:17.072Z,96397.6
2023-10-07T07:30:19.312Z,96399.6
2023-10-07T07:31:22.414Z,96401.6
2023-10-07T07:32:24.779Z,96398.5
2023-10-07T07:33:26.949Z,96402.6
2023-10-07T07:34:29.072Z,96400.6
2023-10-07T07:35:31.228Z,96398.5
2023-10-07T07:36:33.350Z,96399.2
2023-10-07T07:37:35.485Z,96396.3
2023-10-07T07:38:37.605Z,96392.5
2023-10-07T07:39:39.725Z,96389.4
2023-10-07T07:40:42.255Z,96389.1
2023-10-07T07:41:44.378Z,96386.3
2023-10-07T07:42:46.346Z,96382.8
2023-10-07T07:43:48.607Z,96388.9
2023-10-07T07:44:50.839Z,96388.9
2023-10-07T07:45:52.929Z,96391.8
2023-10-07T07:48:00.619Z,96388.8
2023-10-07T07:49:03.122Z,96387.7
2023-10-07T07:50:05.457Z,96389.6
2023-10-07T07:51:07.633Z,96388.6
2023-10-07T07:52:10.003Z,96387.3
2023-10-07T07:53:12.382Z,96387.5
2023-10-07T07:54:14.864Z,96387.3
2023-10-07T07:55:16.962Z,96390.9
2023-10-07T07:56:19.814Z,96391.7
2023-10-07T07:57:21.942Z,96398.5
2023-10-07T07:58:23.847Z,96400.1
2023-10-07T07:59:26.193Z,96404.4
2023-10-07T08:00:28.446Z,96406.8
2023-10-07T08:01:30.813Z,96408.8
2023-10-07T08:02:33.409Z,96410.3
2023-10-07T08:03:36.526Z,96413.3
2023-10-07T08:04:40.364Z,96409.6
2023-10-07T08:05:43.075Z,96415.4
2023-10-07T08:06:45.478Z,96416.1
2023-10-07T08:07:47.509Z,96419.7
2023-10-07T08:08:49.483Z,96421.4
2023-10-07T08:09:51.483Z,96423.3
2023-10-07T08:10:53.479Z,96420
2023-10-07T08:11:55.708Z,96425.6
2023-10-07T08:12:57.587Z,96424
2023-10-07T08:13:59.446Z,96423.9
2023-10-07T08:15:02.120Z,96430.7
2023-10-07T08:16:04.446Z,96425.9
2023-10-07T08:17:06.710Z,96431.2
2023-10-07T08:18:09.801Z,96418.4
2023-10-07T08:19:12.148Z,96420.5
2023-10-07T08:20:14.445Z,96422.4
2023-10-07T08:21:16.828Z,96418.2
2023-10-07T08:22:18.329Z,96422.8
2023-10-07T08:23:20.243Z,96423.3
2023-10-07T08:24:22.227Z,96425.2
2023-10-07T08:25:24.582Z,96422.3
2023-10-07T08:26:26.916Z,96428.1
2023-10-07T08:27:29.023Z,96428.7
2023-10-07T08:28:31.167Z,96429.8
2023-10-07T08:29:32.890Z,96431.5
2023-10-07T08:30:34.957Z,96428.3
2023-10-07T08:31:37.309Z,96430.9
2023-10-07T08:32:39.607Z,96427.7
2023-10-07T08:33:41.799Z,96422.9
2023-10-07T08:34:44.037Z,96425.1
2023-10-07T08:35:46.235Z,96428.1
2023-10-07T08:36:48.147Z,96430
2023-10-07T08:37:50.765Z,96425.8
2023-10-07T08:38:52.695Z,96425.4
2023-10-07T08:39:54.680Z,96419
2023-10-07T08:40:56.818Z,96426.6
2023-10-07T08:41:58.986Z,96427.8
2023-10-07T08:43:01.672Z,96423.7
2023-10-07T08:44:03.789Z,96423.7
2023-10-07T08:45:05.745Z,96418.3
2023-10-07T08:46:07.983Z,96416.4
2023-10-07T08:47:10.613Z,96419.8
2023-10-07T08:48:12.961Z,96414.3
2023-10-07T08:49:15.139Z,96416.7
2023-10-07T08:50:17.466Z,96419
2023-10-07T08:51:19.497Z,96412.4
2023-10-07T08:52:21.427Z,96408.1
2023-10-07T08:53:23.316Z,96406.8
2023-10-07T08:54:25.306Z,96406.4
2023-10-07T08:55:27.370Z,96406.6
2023-10-07T08:56:29.495Z,96410.1
2023-10-07T08:57:31.681Z,96408.2
2023-10-07T08:58:33.980Z,96408.7
2023-10-07T08:59:36.073Z,96412.6
2023-10-07T09:00:38.353Z,96408.7
2023-10-07T09:01:40.776Z,96403.6
2023-10-07T09:02:43.009Z,96406.6
2023-10-07T09:03:45.492Z,96410.6
2023-10-07T09:04:47.900Z,96409.7
2023-10-07T09:05:50.403Z,96410
2023-10-07T09:06:52.768Z,96405.2
2023-10-07T09:07:55.026Z,96403.2
2023-10-07T09:08:57.186Z,96408
2023-10-07T09:09:59.451Z,96408.4
2023-10-07T09:11:01.729Z,96403
2023-10-07T09:12:03.907Z,96410.3
2023-10-07T09:13:06.094Z,96408.1
2023-10-07T09:14:08.725Z,96412.1
2023-10-07T09:15:11.436Z,96411.5
2023-10-07T09:16:13.600Z,96416.4
2023-10-07T09:17:16.366Z,96415.4
2023-10-07T09:18:18.542Z,96411.6
2023-10-07T09:19:20.373Z,96409.5
2023-10-07T09:20:22.755Z,96411
2023-10-07T09:21:24.886Z,96411.1
2023-10-07T09:22:27.186Z,96408.1
2023-10-07T09:23:29.260Z,96406.6
2023-10-07T09:24:30.973Z,96405.3
2023-10-07T09:25:32.937Z,96403.9
2023-10-07T09:26:34.686Z,96405.2
2023-10-07T09:27:36.970Z,96403.1
2023-10-07T09:28:39.102Z,96408.3
2023-10-07T09:29:41.225Z,96403.5
2023-10-07T09:30:43.572Z,96399.8
2023-10-07T09:31:45.803Z,96405.3
2023-10-07T09:32:48.173Z,96403.7
2023-10-07T09:33:50.359Z,96404
2023-10-07T09:34:52.455Z,96404.3
2023-10-07T09:35:54.747Z,96405.1
2023-10-07T09:36:56.890Z,96402.3
2023-10-07T09:37:59.384Z,96403.4
2023-10-07T09:39:01.594Z,96404.1
2023-10-07T09:40:03.694Z,96402.6
2023-10-07T09:41:06.015Z,96399.9
2023-10-07T09:42:08.168Z,96396.5
2023-10-07T09:43:10.144Z,96398.7
2023-10-07T09:44:12.349Z,96397.4
2023-10-07T09:45:14.577Z,96391.3
2023-10-07T09:47:22.225Z,96389.1
2023-10-07T09:48:24.853Z,96389.3
2023-10-07T09:49:27.199Z,96389.3
2023-10-07T09:50:29.449Z,96383.9
2023-10-07T09:51:31.434Z,96388.3
2023-10-07T09:52:33.611Z,96388.8
2023-10-07T09:53:36.112Z,96385.1
2023-10-07T09:54:38.371Z,96386.2
2023-10-07T09:55:40.531Z,96381.7
2023-10-07T09:56:42.936Z,96382.1
2023-10-07T09:57:44.939Z,96376
2023-10-07T09:58:46.997Z,96379.3
2023-10-07T09:59:49.157Z,96379.1
2023-10-07T10:00:51.220Z,96377.9
2023-10-07T10:01:53.649Z,96379.5
2023-10-07T10:02:56.254Z,96376.3
2023-10-07T10:03:58.805Z,96375.4
2023-10-07T10:05:01.287Z,96370.9
2023-10-07T10:06:03.273Z,96371.5
2023-10-07T10:07:05.206Z,96374.3
2023-10-07T10:08:07.489Z,96374
2023-10-07T10:09:09.476Z,96375.5
2023-10-07T10:10:11.402Z,96373.4
2023-10-07T10:11:13.686Z,96368.3
2023-10-07T10:12:15.889Z,96368
2023-10-07T10:13:18.083Z,96367.6
2023-10-07T10:15:25.216Z,96373.2
2023-10-07T10:16:27.534Z,96370.5
2023-10-07T10:17:30.242Z,96370.3
2023-10-07T10:18:32.581Z,96375.3
2023-10-07T10:19:34.744Z,96371.7
2023-10-07T10:20:36.733Z,96370.5
2023-10-07T10:21:38.845Z,96373.4
2023-10-07T10:22:40.928Z,96373.6
2023-10-07T10:23:43.226Z,96374.5
2023-10-07T10:24:45.377Z,96373.7
2023-10-07T10:25:47.322Z,96370.8
2023-10-07T10:26:49.445Z,96372.9
2023-10-07T10:27:51.563Z,96366.8
2023-10-07T10:28:53.869Z,96362.8
2023-10-07T10:29:56.120Z,96364.9
2023-10-07T10:30:58.474Z,96367.1
2023-10-07T10:32:01.444Z,96363.2
2023-10-07T10:33:03.664Z,96363.4
2023-10-07T10:34:05.954Z,96365.3
2023-10-07T10:35:08.722Z,96363.6
2023-10-07T10:36:10.963Z,96357.9
2023-10-07T10:37:12.876Z,96355.2
2023-10-07T10:38:15.075Z,96362.1
2023-10-07T10:40:22.320Z,96366.9
2023-10-07T10:41:24.539Z,96372.4
2023-10-07T10:42:26.674Z,96371.6
2023-10-07T10:43:28.809Z,96372.9
2023-10-07T10:44:30.736Z,96370.7
2023-10-07T10:45:32.735Z,96370.5
2023-10-07T10:46:34.828Z,96368.4
2023-10-07T10:47:37.473Z,96372.7
2023-10-07T10:48:39.718Z,96370.9
2023-10-07T10:49:41.824Z,96367.9
2023-10-07T10:50:44.011Z,96367.8
2023-10-07T10:51:45.728Z,96373.9
2023-10-07T10:52:47.934Z,96364.9
2023-10-07T10:53:49.910Z,96362
2023-10-07T10:54:52.020Z,96366
2023-10-07T10:55:54.248Z,96363.7
2023-10-07T10:56:56.213Z,96360.4
2023-10-07T10:57:58.316Z,96354.7
2023-10-07T10:59:00.560Z,96360.4
2023-10-07T11:00:02.543Z,96357.7
2023-10-07T11:01:04.824Z,96356.4
2023-10-07T11:02:07.346Z,96354.4
2023-10-07T11:03:09.936Z,96352
2023-10-07T11:04:13.836Z,96353
2023-10-07T11:05:17.227Z,96350.7
2023-10-07T11:06:19.621Z,96353
2023-10-07T11:07:21.867Z,96352.5
2023-10-07T11:08:24.015Z,96352.1
2023-10-07T11:09:26.392Z,96351.7
2023-10-07T11:10:28.344Z,96353.5
2023-10-07T11:11:30.666Z,96352.1
2023-10-07T11:12:32.948Z,96351.8
2023-10-07T11:13:35.083Z,96350.8
2023-10-07T11:14:37.011Z,96355.3
2023-10-07T11:15:39.118Z,96354.8
2023-10-07T11:16:41.293Z,96353.2
2023-10-07T11:17:44.040Z,96349.5
2023-10-07T11:18:46.921Z,96347.9
2023-10-07T11:19:49.582Z,96348.4
2023-10-07T11:20:51.780Z,96347.2
2023-10-07T11:21:53.773Z,96341.5
2023-10-07T11:22:56.143Z,96340.5
2023-10-07T11:23:58.331Z,96341.2
2023-10-07T11:25:00.299Z,96340.6
2023-10-07T11:26:02.116Z,96339.5
2023-10-07T11:27:04.340Z,96338.5
2023-10-07T11:28:06.443Z,96333.7
2023-10-07T11:29:08.583Z,96334.4
2023-10-07T11:30:10.763Z,96334
2023-10-07T11:31:13.302Z,96337.2
2023-10-07T11:32:15.883Z,96338
2023-10-07T11:33:19.717Z,96333.4
2023-10-07T11:34:22.264Z,96335.4
2023-10-07T11:35:24.063Z,96337.1
2023-10-07T11:36:26.282Z,96343.4
2023-10-07T11:37:28.271Z,96336
2023-10-07T11:38:30.335Z,96341.3
2023-10-07T11:39:32.551Z,96341.9
2023-10-07T11:40:34.433Z,96339.5
2023-10-07T11:41:36.372Z,96336.5
2023-10-07T11:42:38.114Z,96341.6
2023-10-07T11:43:40.205Z,96338.8
2023-10-07T11:44:41.939Z,96340.8
2023-10-07T11:45:44.059Z,96337.2
2023-10-07T11:46:46.440Z,96336.9
2023-10-07T11:47:48.770Z,96336.5
2023-10-07T11:48:50.746Z,96335.9
2023-10-07T11:49:53.314Z,96335.6
2023-10-07T11:50:55.947Z,96339.5
2023-10-07T11:51:57.891Z,96340.7
2023-10-07T11:53:00.233Z,96344
2023-10-07T11:54:02.207Z,96342.1
2023-10-07T11:55:04.130Z,96345.6
2023-10-07T11:56:06.480Z,96350.8
2023-10-07T11:57:08.525Z,96348.9
2023-10-07T11:58:10.660Z,96352.6
2023-10-07T11:59:13.889Z,96352.3
2023-10-07T12:00:16.066Z,96349.3
2023-10-07T12:01:18.339Z,96352.5
2023-10-07T12:02:20.662Z,96352.5
2023-10-07T12:03:22.961Z,96348
2023-10-07T12:04:25.189Z,96352.3
2023-10-07T12:05:27.532Z,96351.8
2023-10-07T12:06:29.702Z,96346.2
2023-10-07T12:07:31.834Z,96349.3
2023-10-07T12:08:34.016Z,96348.6
2023-10-07T12:09:35.961Z,96345.9
2023-10-07T12:10:38.107Z,96346.2
2023-10-07T12:11:40.086Z,96342.5
2023-10-07T12:12:42.037Z,96342.5
2023-10-07T12:13:44.083Z,96340.9
2023-10-07T12:14:46.019Z,96341.2
2023-10-07T12:16:53.428Z,96338.1
2023-10-07T12:17:55.967Z,96333.7
2023-10-07T12:18:58.350Z,96330.5
2023-10-07T12:20:00.696Z,96333.3
2023-10-07T12:22:09.155Z,96335.7
2023-10-07T12:23:11.579Z,96329.1
2023-10-07T12:24:13.932Z,96325.2
2023-10-07T12:25:15.848Z,96328.1
2023-10-07T12:26:19.419Z,96327.2
2023-10-07T12:27:21.548Z,96326.7
2023-10-07T12:28:23.676Z,96321
2023-10-07T12:29:26.098Z,96324.9
2023-10-07T12:30:28.338Z,96325.5
2023-10-07T12:31:30.621Z,96328.7
2023-10-07T12:32:33.299Z,96318.2
2023-10-07T12:34:40.579Z,96325.5
2023-10-07T12:35:42.784Z,96324.1
2023-10-07T12:36:44.988Z,96329.8
2023-10-07T12:37:47.241Z,96331.7
2023-10-07T12:38:49.235Z,96328.8
2023-10-07T12:39:51.582Z,96335.1
2023-10-07T12:40:53.999Z,96340.8
2023-10-07T12:41:55.970Z,96342.9
2023-10-07T12:42:57.690Z,96339.2
2023-10-07T12:43:59.964Z,96345.3
2023-10-07T12:45:02.147Z,96342